createdAt,value
2023-02-13T00:00:33.281Z,5.17
2023-02-13T00:03:00.374Z,4.63
2023-02-13T00:05:26.629Z,4.40
2023-02-13T00:07:52.710Z,3.90
2023-02-13T00:10:18.805Z,4.37
2023-02-13T00:12:44.881Z,4.33
2023-02-13T00:15:10.965Z,3.90
2023-02-13T00:17:37.094Z,4.13
2023-02-13T00:20:04.172Z,4.60
2023-02-13T00:22:30.228Z,3.83
2023-02-13T00:24:56.328Z,4.13
2023-02-13T00:27:22.437Z,3.83
2023-02-13T00:29:48.492Z,4.70
2023-02-13T00:32:14.660Z,3.60
2023-02-13T00:34:41.022Z,3.77
2023-02-13T00:37:07.089Z,3.80
2023-02-13T00:39:33.162Z,3.70
2023-02-13T00:41:59.251Z,3.50
2023-02-13T00:44:25.351Z,3.50
2023-02-13T00:46:51.450Z,3.90
2023-02-13T00:49:17.552Z,4.03
2023-02-13T00:51:43.735Z,3.10
2023-02-13T00:54:09.879Z,3.50
2023-02-13T00:56:36.033Z,3.60
2023-02-13T00:59:02.202Z,3.50
2023-02-13T01:01:28.417Z,3.40
2023-02-13T01:03:54.769Z,3.90
2023-02-13T01:06:20.943Z,3.70
2023-02-13T01:08:47.031Z,3.30
2023-02-13T01:11:14.732Z,3.30
2023-02-13T01:13:40.824Z,2.90
2023-02-13T01:16:07.086Z,3.33
2023-02-13T01:18:33.270Z,3.80
2023-02-13T01:21:01.832Z,3.07
2023-02-13T01:23:32.472Z,3.30
2023-02-13T01:25:59.382Z,3.43
2023-02-13T01:28:25.650Z,3.33
2023-02-13T01:30:53.265Z,3.50
2023-02-13T01:33:19.471Z,3.93
2023-02-13T01:35:45.508Z,3.43
2023-02-13T01:38:11.802Z,3.50
2023-02-13T01:40:47.278Z,3.70
2023-02-13T01:43:13.862Z,3.33
2023-02-13T01:45:40.296Z,3.60
2023-02-13T01:48:12.172Z,3.10
2023-02-13T01:50:49.274Z,2.87
2023-02-13T01:53:28.188Z,3.37
2023-02-13T01:56:00.233Z,3.70
2023-02-13T01:58:30.548Z,3.47
2023-02-13T02:01:35.730Z,3.33
2023-02-13T02:04:08.646Z,3.40
2023-02-13T02:06:42.276Z,4.03
2023-02-13T02:09:12.991Z,3.80
2023-02-13T02:12:06.600Z,4.60
2023-02-13T02:14:33.071Z,3.70
2023-02-13T02:16:59.177Z,3.87
2023-02-13T02:19:46.593Z,3.97
2023-02-13T02:22:35.063Z,3.73
2023-02-13T02:25:44.912Z,4.17
2023-02-13T02:28:41.174Z,3.27
2023-02-13T02:31:29.018Z,4.20
2023-02-13T02:34:08.931Z,3.70
2023-02-13T02:36:58.071Z,4.23
2023-02-13T02:39:36.892Z,3.87
2023-02-13T02:42:24.297Z,3.50
2023-02-13T02:45:10.099Z,3.87
2023-02-13T02:48:06.506Z,4.20
2023-02-13T02:50:50.428Z,3.77
2023-02-13T02:53:31.127Z,3.73
2023-02-13T02:56:15.949Z,3.47
2023-02-13T02:59:06.053Z,3.47
2023-02-13T03:01:51.656Z,3.07
2023-02-13T03:04:57.124Z,2.60
2023-02-13T03:07:23.203Z,2.70
2023-02-13T03:10:10.836Z,2.80
2023-02-13T03:13:10.865Z,2.60
2023-02-13T03:15:58.768Z,2.33
2023-02-13T03:18:44.051Z,2.23
2023-02-13T03:21:34.678Z,2.57
2023-02-13T03:24:19.668Z,2.53
2023-02-13T03:27:11.113Z,2.30
2023-02-13T03:30:11.006Z,2.40
2023-02-13T03:32:46.172Z,2.50
2023-02-13T03:35:39.978Z,2.80
2023-02-13T03:38:21.456Z,1.93
2023-02-13T03:41:19.571Z,2.90
2023-02-13T03:43:57.789Z,2.83
2023-02-13T03:46:25.954Z,2.37
2023-02-13T03:49:11.183Z,2.77
2023-02-13T03:51:44.652Z,2.43
2023-02-13T03:54:47.192Z,2.07
2023-02-13T03:57:34.890Z,2.50
2023-02-13T04:00:03.337Z,1.60
2023-02-13T04:02:33.439Z,1.63
2023-02-13T04:05:07.959Z,1.00
2023-02-13T04:07:34.822Z,1.23
2023-02-13T04:10:08.298Z,1.60
2023-02-13T04:12:57.359Z,1.63
2023-02-13T04:15:28.846Z,1.83
2023-02-13T04:18:02.741Z,1.40
2023-02-13T04:20:31.182Z,3.13
2023-02-13T04:22:57.242Z,2.20
2023-02-13T04:25:23.367Z,3.30
2023-02-13T04:27:49.514Z,3.20
2023-02-13T04:30:15.680Z,2.80
2023-02-13T04:32:41.743Z,3.10
2023-02-13T04:35:08.643Z,3.10
2023-02-13T04:37:34.688Z,2.93
2023-02-13T04:40:00.740Z,2.67
2023-02-13T04:42:26.779Z,3.03
2023-02-13T04:44:52.866Z,3.07
2023-02-13T04:47:18.950Z,2.70
2023-02-13T04:49:45.028Z,2.50
2023-02-13T04:52:11.100Z,2.30
2023-02-13T04:54:37.188Z,2.00
2023-02-13T04:57:03.260Z,1.70
2023-02-13T04:59:29.293Z,2.37
2023-02-13T05:01:55.346Z,1.83
2023-02-13T05:04:21.762Z,2.50
2023-02-13T05:06:47.923Z,2.27
2023-02-13T05:09:13.986Z,2.37
2023-02-13T05:11:40.154Z,2.50
2023-02-13T05:14:06.272Z,2.17
2023-02-13T05:16:32.664Z,2.90
2023-02-13T05:18:58.736Z,3.00
2023-02-13T05:21:43.681Z,2.77
2023-02-13T05:24:09.813Z,2.93
2023-02-13T05:26:36.090Z,4.03
2023-02-13T05:29:21.832Z,2.67
2023-02-13T05:31:53.222Z,3.20
2023-02-13T05:34:24.104Z,3.10
2023-02-13T05:36:50.592Z,3.10
2023-02-13T05:39:17.288Z,3.80
2023-02-13T05:41:44.449Z,3.40
2023-02-13T05:44:11.063Z,3.10
2023-02-13T05:46:39.202Z,3.23
2023-02-13T05:49:05.889Z,3.40
2023-02-13T05:51:31.940Z,4.00
2023-02-13T05:53:58.028Z,3.50
2023-02-13T05:56:24.426Z,3.77
2023-02-13T05:58:52.098Z,3.80
2023-02-13T06:01:18.796Z,4.03
2023-02-13T06:03:45.043Z,4.67
2023-02-13T06:06:11.176Z,3.90
2023-02-13T06:08:37.353Z,4.20
2023-02-13T06:11:04.039Z,3.90
2023-02-13T06:13:30.581Z,4.03
2023-02-13T06:15:56.747Z,4.00
2023-02-13T06:18:23.254Z,3.50
2023-02-13T06:20:49.465Z,2.70
2023-02-13T06:23:15.636Z,4.40
2023-02-13T06:25:41.724Z,4.27
2023-02-13T06:28:07.834Z,3.97
2023-02-13T06:30:34.046Z,3.60
2023-02-13T06:33:00.301Z,4.43
2023-02-13T06:35:26.915Z,4.47
2023-02-13T06:37:53.003Z,4.17
2023-02-13T06:40:19.218Z,4.20
2023-02-13T06:42:45.471Z,3.73
2023-02-13T06:45:12.535Z,4.00
2023-02-13T06:47:42.648Z,5.10
2023-02-13T06:50:10.167Z,4.70
2023-02-13T06:52:36.318Z,4.77
2023-02-13T06:55:04.447Z,4.90
2023-02-13T06:57:34.177Z,5.10
2023-02-13T07:00:03.791Z,4.73
2023-02-13T07:02:29.932Z,4.57
2023-02-13T07:04:56.007Z,5.63
2023-02-13T07:07:22.144Z,6.20
2023-02-13T07:09:48.232Z,6.00
2023-02-13T07:12:14.367Z,5.70
2023-02-13T07:14:40.620Z,6.57
2023-02-13T07:17:06.752Z,7.20
2023-02-13T07:19:32.956Z,6.57
2023-02-13T07:21:58.986Z,7.13
2023-02-13T07:24:25.227Z,6.00
2023-02-13T07:26:51.363Z,5.90
2023-02-13T07:29:17.416Z,5.60
2023-02-13T07:31:43.613Z,6.57
2023-02-13T07:34:09.727Z,7.60
2023-02-13T07:36:35.826Z,7.03
2023-02-13T07:39:01.904Z,7.20
2023-02-13T07:41:28.175Z,7.87
2023-02-13T07:43:54.308Z,7.53
2023-02-13T07:46:21.060Z,8.50
2023-02-13T07:48:47.212Z,7.90
2023-02-13T07:51:13.518Z,10.03
2023-02-13T07:53:39.603Z,9.50
2023-02-13T07:56:09.777Z,9.70
2023-02-13T07:58:37.146Z,9.30
2023-02-13T08:01:10.855Z,9.67
2023-02-13T08:03:37.224Z,10.07
2023-02-13T08:06:03.995Z,8.77
2023-02-13T08:08:30.160Z,10.13
2023-02-13T08:11:15.028Z,10.17
2023-02-13T08:13:42.743Z,10.47
2023-02-13T08:16:08.856Z,10.67
2023-02-13T08:18:34.928Z,10.77
2023-02-13T08:21:02.297Z,11.20
2023-02-13T08:23:28.449Z,10.33
2023-02-13T08:25:55.631Z,9.70
2023-02-13T08:28:22.042Z,10.13
2023-02-13T08:30:48.184Z,10.00
2023-02-13T08:33:14.246Z,9.53
2023-02-13T08:35:40.441Z,8.90
2023-02-13T08:38:06.550Z,8.67
2023-02-13T08:40:33.662Z,10.10
2023-02-13T08:43:04.052Z,8.47
2023-02-13T08:45:31.035Z,8.67
2023-02-13T08:47:58.268Z,9.23
2023-02-13T08:50:24.768Z,10.00
2023-02-13T08:52:50.836Z,10.80
2023-02-13T08:55:16.975Z,10.50
2023-02-13T08:57:43.154Z,9.83
2023-02-13T09:00:09.673Z,10.43
2023-02-13T09:02:35.830Z,9.87
2023-02-13T09:05:01.945Z,10.03
2023-02-13T09:07:28.016Z,9.00
2023-02-13T09:09:54.089Z,10.07
2023-02-13T09:12:20.121Z,8.37
2023-02-13T09:14:47.059Z,8.07
2023-02-13T09:17:17.571Z,8.37
2023-02-13T09:19:44.900Z,8.40
2023-02-13T09:22:11.010Z,8.70
2023-02-13T09:24:37.149Z,8.60
2023-02-13T09:27:07.739Z,7.27
2023-02-13T09:29:34.243Z,9.00
2023-02-13T09:32:00.389Z,8.63
2023-02-13T09:34:26.767Z,9.20
2023-02-13T09:36:53.461Z,8.80
2023-02-13T09:39:19.599Z,9.10
2023-02-13T09:41:48.603Z,8.60
2023-02-13T09:44:33.448Z,8.87
2023-02-13T09:47:21.755Z,8.87
2023-02-13T09:49:55.032Z,8.93
2023-02-13T09:52:21.123Z,9.30
2023-02-13T09:54:47.241Z,10.27
2023-02-13T09:57:13.344Z,9.37
2023-02-13T09:59:49.957Z,9.33
2023-02-13T10:02:35.087Z,9.83
2023-02-13T10:05:19.356Z,9.13
2023-02-13T10:07:56.140Z,8.90
2023-02-13T10:10:28.033Z,9.23
2023-02-13T10:12:57.121Z,8.87
2023-02-13T10:15:28.906Z,7.97
2023-02-13T10:18:10.340Z,9.43
2023-02-13T10:20:45.415Z,8.57
2023-02-13T10:23:17.170Z,8.80
2023-02-13T10:25:48.610Z,8.17
2023-02-13T10:28:24.228Z,7.83
2023-02-13T10:30:53.604Z,8.60
2023-02-13T10:33:22.446Z,8.10
2023-02-13T10:36:10.130Z,9.20
2023-02-13T10:38:56.356Z,8.80
2023-02-13T10:41:42.233Z,8.57
2023-02-13T10:44:34.804Z,9.00
2023-02-13T10:47:13.676Z,9.80
2023-02-13T10:50:11.556Z,9.17
2023-02-13T10:52:49.722Z,8.37
2023-02-13T10:55:43.070Z,9.60
2023-02-13T10:58:12.657Z,8.60
2023-02-13T11:01:00.607Z,8.87
2023-02-13T11:03:28.143Z,9.70
2023-02-13T11:05:55.566Z,9.67
2023-02-13T11:08:26.329Z,9.10
2023-02-13T11:10:52.446Z,7.90
2023-02-13T11:13:27.318Z,9.70
2023-02-13T11:15:56.655Z,8.40
2023-02-13T11:18:25.725Z,9.27
2023-02-13T11:21:07.102Z,8.17
2023-02-13T11:23:37.338Z,9.70
2023-02-13T11:26:09.712Z,9.23
2023-02-13T11:28:39.056Z,8.20
2023-02-13T11:31:31.011Z,9.40
2023-02-13T11:33:59.164Z,8.63
2023-02-13T11:36:31.226Z,9.73
2023-02-13T11:38:58.409Z,8.57
2023-02-13T11:41:25.156Z,8.20
2023-02-13T11:44:00.483Z,8.40
2023-02-13T11:46:28.956Z,8.70
2023-02-13T11:48:56.599Z,8.60
2023-02-13T11:51:36.440Z,8.50
2023-02-13T11:54:03.541Z,8.20
2023-02-13T11:57:03.103Z,9.30
2023-02-13T11:59:33.486Z,8.20
2023-02-13T12:02:09.033Z,8.90
2023-02-13T12:04:35.335Z,8.83
2023-02-13T12:07:04.454Z,8.17
2023-02-13T12:09:31.538Z,7.73
2023-02-13T12:12:01.715Z,8.67
2023-02-13T12:14:32.098Z,8.93
2023-02-13T12:17:00.184Z,10.50
2023-02-13T12:19:46.749Z,8.77
2023-02-13T12:22:34.986Z,8.90
2023-02-13T12:25:26.167Z,8.53
2023-02-13T12:28:15.048Z,9.87
2023-02-13T12:31:00.377Z,8.03
2023-02-13T12:34:02.027Z,7.80
2023-02-13T12:36:49.012Z,12.47
2023-02-13T12:39:28.037Z,9.00
2023-02-13T12:42:06.580Z,9.37
2023-02-13T12:44:41.777Z,8.97
2023-02-13T12:47:17.428Z,8.93
2023-02-13T12:50:10.399Z,7.87
2023-02-13T12:52:46.438Z,8.40
2023-02-13T12:55:24.519Z,7.93
2023-02-13T12:58:28.175Z,8.20
2023-02-13T13:01:19.177Z,7.50
2023-02-13T13:03:57.007Z,7.70
2023-02-13T13:06:36.393Z,7.97
2023-02-13T13:09:06.148Z,8.00
2023-02-13T13:11:33.755Z,7.40
2023-02-13T13:14:11.302Z,8.90
2023-02-13T13:16:52.646Z,8.70
2023-02-13T13:19:26.889Z,8.30
2023-02-13T13:21:59.536Z,7.30
2023-02-13T13:24:44.256Z,7.30
2023-02-13T13:27:24.175Z,8.67
2023-02-13T13:30:06.399Z,7.23
2023-02-13T13:32:33.743Z,7.10
2023-02-13T13:35:00.150Z,6.80
2023-02-13T13:37:32.161Z,8.00
2023-02-13T13:39:58.238Z,9.17
2023-02-13T13:42:33.890Z,7.70
2023-02-13T13:45:05.298Z,7.93
2023-02-13T13:47:52.022Z,7.67
2023-02-13T13:50:26.459Z,8.00
2023-02-13T13:53:24.788Z,7.20
2023-02-13T13:55:57.645Z,7.70
2023-02-13T13:58:46.232Z,7.40
2023-02-13T14:01:28.553Z,8.40
2023-02-13T14:04:03.015Z,7.83
2023-02-13T14:06:44.398Z,7.83
2023-02-13T14:09:36.677Z,7.77
2023-02-13T14:12:25.354Z,7.90
2023-02-13T14:14:53.157Z,8.20
2023-02-13T14:17:43.937Z,8.57
2023-02-13T14:20:22.934Z,8.03
2023-02-13T14:22:49.067Z,7.63
2023-02-13T14:25:27.277Z,8.00
2023-02-13T14:28:04.297Z,8.57
2023-02-13T14:30:35.798Z,8.00
2023-02-13T14:33:07.089Z,7.30
2023-02-13T14:35:36.508Z,8.10
2023-02-13T14:38:04.832Z,7.87
2023-02-13T14:40:42.644Z,7.43
2023-02-13T14:43:30.052Z,7.13
2023-02-13T14:46:04.151Z,7.33
2023-02-13T14:48:39.841Z,9.02
2023-02-13T14:51:07.407Z,6.90
2023-02-13T14:54:20.118Z,7.20
2023-02-13T14:56:48.537Z,7.60
2023-02-13T14:59:17.763Z,6.93
2023-02-13T15:01:54.606Z,6.97
2023-02-13T15:04:44.911Z,6.83
2023-02-13T15:07:23.783Z,7.00
2023-02-13T15:09:59.065Z,6.90
2023-02-13T15:12:35.140Z,7.00
2023-02-13T15:15:05.313Z,6.70
2023-02-13T15:17:37.901Z,6.30
2023-02-13T15:20:23.040Z,7.60
2023-02-13T15:22:49.147Z,7.97
2023-02-13T15:25:26.443Z,6.90
2023-02-13T15:27:53.749Z,6.93
2023-02-13T15:30:22.977Z,7.20
2023-02-13T15:32:55.636Z,5.53
2023-02-13T15:35:26.653Z,7.10
2023-02-13T15:37:54.197Z,7.10
2023-02-13T15:40:25.447Z,8.00
2023-02-13T15:42:52.031Z,7.17
2023-02-13T15:45:20.011Z,7.20
2023-02-13T15:47:46.691Z,7.10
2023-02-13T15:50:28.178Z,6.87
2023-02-13T15:52:54.605Z,6.40
2023-02-13T15:55:26.056Z,6.73
2023-02-13T15:57:55.715Z,7.07
2023-02-13T16:00:23.747Z,6.40
2023-02-13T16:02:50.920Z,6.50
2023-02-13T16:05:26.471Z,6.03
2023-02-13T16:08:22.539Z,6.90
2023-02-13T16:10:48.621Z,6.60
2023-02-13T16:13:17.921Z,6.30
2023-02-13T16:15:43.971Z,5.53
2023-02-13T16:18:17.937Z,5.77
2023-02-13T16:20:44.032Z,6.13
2023-02-13T16:23:16.454Z,6.73
2023-02-13T16:25:42.698Z,6.90
2023-02-13T16:28:08.787Z,6.97
2023-02-13T16:30:43.161Z,8.03
2023-02-13T16:33:13.672Z,7.50
2023-02-13T16:35:44.082Z,7.80
2023-02-13T16:38:34.392Z,7.70
2023-02-13T16:41:16.774Z,8.23
2023-02-13T16:43:47.162Z,8.87
2023-02-13T16:46:19.434Z,14.60
2023-02-13T16:48:58.443Z,21.80
2023-02-13T16:51:44.781Z,44.50
2023-02-13T16:54:10.818Z,12.30
2023-02-13T16:56:41.228Z,14.00
2023-02-13T16:59:32.010Z,11.70
2023-02-13T17:02:24.626Z,11.60
2023-02-13T17:04:54.995Z,12.27
2023-02-13T17:07:24.055Z,12.93
2023-02-13T17:09:53.095Z,13.50
2023-02-13T17:12:19.552Z,15.20
2023-02-13T17:14:45.817Z,16.10
2023-02-13T17:17:13.636Z,15.20
2023-02-13T17:19:40.126Z,16.30
2023-02-13T17:22:06.878Z,13.60
2023-02-13T17:24:33.176Z,13.88
2023-02-13T17:26:59.326Z,13.90
2023-02-13T17:29:25.981Z,15.60
2023-02-13T17:31:54.056Z,17.67
2023-02-13T17:34:20.158Z,19.63
2023-02-13T17:36:46.244Z,17.07
2023-02-13T17:39:12.599Z,15.23
2023-02-13T17:41:42.067Z,17.27
2023-02-13T17:44:11.905Z,12.67
2023-02-13T17:46:38.033Z,12.23
2023-02-13T17:49:04.179Z,12.53
2023-02-13T17:51:31.046Z,12.77
2023-02-13T17:53:57.214Z,13.40
2023-02-13T17:56:23.482Z,15.00
2023-02-13T17:58:49.595Z,13.70
2023-02-13T18:01:15.708Z,14.17
2023-02-13T18:03:41.785Z,14.40
2023-02-13T18:06:12.341Z,14.20
2023-02-13T18:08:38.427Z,14.87
2023-02-13T18:11:11.205Z,14.37
2023-02-13T18:13:37.386Z,14.60
2023-02-13T18:16:08.003Z,16.37
2023-02-13T18:18:34.155Z,16.37
2023-02-13T18:21:00.444Z,19.97
2023-02-13T18:23:26.694Z,19.77
2023-02-13T18:25:52.799Z,19.43
2023-02-13T18:28:18.861Z,17.33
2023-02-13T18:30:45.143Z,18.27
2023-02-13T18:33:11.387Z,22.77
2023-02-13T18:35:37.560Z,24.23
2023-02-13T18:38:03.667Z,28.37
2023-02-13T18:40:29.762Z,31.00
2023-02-13T18:42:55.845Z,25.80
2023-02-13T18:45:21.955Z,32.70
2023-02-13T18:47:47.992Z,32.90
2023-02-13T18:50:14.121Z,30.97
2023-02-13T18:52:40.288Z,32.70
2023-02-13T18:55:06.750Z,27.50
2023-02-13T18:57:32.949Z,21.33
2023-02-13T18:59:59.047Z,17.33
2023-02-13T19:02:25.172Z,16.60
2023-02-13T19:04:51.331Z,16.90
2023-02-13T19:07:17.519Z,15.60
2023-02-13T19:09:43.733Z,15.50
2023-02-13T19:12:09.954Z,17.80
2023-02-13T19:14:36.108Z,15.70
2023-02-13T19:17:02.237Z,16.33
2023-02-13T19:19:28.716Z,27.43
2023-02-13T19:21:54.961Z,34.20
2023-02-13T19:24:21.047Z,30.90
2023-02-13T19:26:47.326Z,22.60
2023-02-13T19:29:13.390Z,18.77
2023-02-13T19:31:39.635Z,15.50
2023-02-13T19:34:05.799Z,16.00
2023-02-13T19:36:31.928Z,16.10
2023-02-13T19:39:02.632Z,13.87
2023-02-13T19:41:29.358Z,12.80
2023-02-13T19:43:55.867Z,13.90
2023-02-13T19:46:24.911Z,14.17
2023-02-13T19:48:51.080Z,14.27
2023-02-13T19:51:19.958Z,14.40
2023-02-13T19:53:46.585Z,15.90
2023-02-13T19:56:13.220Z,14.30
2023-02-13T19:58:40.136Z,14.13
2023-02-13T20:01:10.813Z,16.03
2023-02-13T20:03:36.909Z,15.37
2023-02-13T20:06:08.918Z,15.70
2023-02-13T20:08:35.211Z,17.47
2023-02-13T20:11:01.624Z,16.60
2023-02-13T20:13:27.965Z,17.13
2023-02-13T20:15:54.560Z,17.60
2023-02-13T20:18:20.799Z,16.07
2023-02-13T20:20:46.892Z,17.70
2023-02-13T20:23:13.048Z,18.97
2023-02-13T20:25:39.244Z,18.77
2023-02-13T20:28:10.099Z,18.57
2023-02-13T20:30:43.124Z,17.67
2023-02-13T20:33:09.940Z,16.70
2023-02-13T20:35:36.282Z,16.33
2023-02-13T20:38:03.448Z,15.70
2023-02-13T20:40:29.510Z,13.97
2023-02-13T20:42:55.664Z,14.70
2023-02-13T20:45:22.099Z,13.47
2023-02-13T20:47:49.050Z,13.17
2023-02-13T20:50:15.259Z,12.93
2023-02-13T20:52:41.417Z,12.97
2023-02-13T20:55:07.738Z,13.47
2023-02-13T20:57:34.699Z,13.40
2023-02-13T21:00:01.081Z,13.00
2023-02-13T21:02:27.180Z,13.23
2023-02-13T21:04:53.257Z,13.63
2023-02-13T21:07:19.326Z,14.43
2023-02-13T21:09:45.438Z,12.50
2023-02-13T21:12:11.611Z,12.40
2023-02-13T21:14:39.329Z,13.77
2023-02-13T21:17:05.480Z,14.43
2023-02-13T21:19:31.630Z,14.40
2023-02-13T21:22:11.265Z,15.37
2023-02-13T21:24:41.213Z,14.87
2023-02-13T21:27:08.204Z,15.00
2023-02-13T21:29:35.154Z,14.37
2023-02-13T21:32:01.722Z,13.60
2023-02-13T21:34:28.048Z,12.90
2023-02-13T21:36:54.096Z,13.27
2023-02-13T21:39:20.156Z,13.13
2023-02-13T21:41:46.285Z,14.00
2023-02-13T21:44:13.888Z,13.60
2023-02-13T21:46:41.201Z,13.30
2023-02-13T21:49:10.945Z,12.93
2023-02-13T21:51:37.157Z,13.30
2023-02-13T21:54:04.295Z,13.10
2023-02-13T21:56:33.323Z,12.30
2023-02-13T21:58:59.547Z,13.10
2023-02-13T22:01:29.879Z,13.67
2023-02-13T22:04:00.294Z,12.50
2023-02-13T22:06:28.165Z,13.90
2023-02-13T22:09:06.082Z,12.80
2023-02-13T22:11:33.087Z,12.73
2023-02-13T22:14:01.858Z,12.00
2023-02-13T22:16:29.754Z,12.60
2023-02-13T22:18:56.204Z,13.40
2023-02-13T22:21:23.919Z,12.40
2023-02-13T22:23:50.298Z,12.40
2023-02-13T22:26:18.161Z,12.70
2023-02-13T22:28:44.894Z,12.50
2023-02-13T22:31:11.858Z,11.50
2023-02-13T22:33:38.117Z,12.60
2023-02-13T22:36:05.610Z,13.00
2023-02-13T22:38:32.966Z,13.37
2023-02-13T22:41:12.580Z,12.70
2023-02-13T22:43:39.248Z,12.70
2023-02-13T22:46:08.103Z,12.33
2023-02-13T22:48:35.518Z,11.07
2023-02-13T22:51:06.576Z,12.17
2023-02-13T22:53:32.985Z,12.37
2023-02-13T22:55:59.336Z,12.33
2023-02-13T22:58:25.634Z,11.30
2023-02-13T23:00:51.812Z,11.07
2023-02-13T23:03:18.191Z,11.63
2023-02-13T23:05:44.241Z,10.50
2023-02-13T23:08:10.633Z,11.70
2023-02-13T23:10:38.342Z,11.23
2023-02-13T23:13:06.561Z,10.77
2023-02-13T23:15:33.810Z,11.20
2023-02-13T23:18:13.354Z,11.77
2023-02-13T23:20:43.279Z,11.57
2023-02-13T23:23:10.088Z,10.43
2023-02-13T23:25:37.670Z,9.43
2023-02-13T23:28:04.650Z,9.83
2023-02-13T23:30:30.888Z,10.17
2023-02-13T23:32:58.123Z,10.57
2023-02-13T23:35:24.354Z,9.33
2023-02-13T23:37:50.398Z,9.53
2023-02-13T23:40:16.934Z,9.90
2023-02-13T23:42:43.626Z,10.50
2023-02-13T23:45:10.719Z,11.47
2023-02-13T23:47:37.187Z,11.57
2023-02-13T23:50:04.453Z,11.60
2023-02-13T23:52:30.529Z,11.13
2023-02-13T23:54:56.588Z,11.47
2023-02-13T23:57:23.267Z,10.70
2023-02-13T23:59:50.715Z,10.67
